Time;durP1;ratioP1;P1;durP2;ratioP2;P2;SDS_P1;SDS_P2;PMS_P1;PMS_P2;Temp;Humidity;BMP_temperature;BMP_pressure;BME280_temperature;BME280_humidity;BME280_pressure;Samples;Min_cycle;Max_cycle;Signal;HPM_P1;HPM_P2
2022/09/12 00:00:44;;;;;;;19.23;14.83;;;16.40;99.90;;;;;;5033079;28;20204;-53
2022/09/12 00:03:14;;;;;;;20.30;15.40;;;16.40;99.90;;;;;;5029455;28;20313;-52
2022/09/12 00:05:46;;;;;;;22.17;15.57;;;16.40;99.90;;;;;;5030678;28;20192;-52
2022/09/12 00:08:16;;;;;;;21.70;15.90;;;16.40;99.90;;;;;;5030849;28;20221;-52
2022/09/12 00:10:44;;;;;;;20.40;16.17;;;16.40;99.90;;;;;;5024511;28;20216;-51
2022/09/12 00:13:14;;;;;;;19.23;15.90;;;16.40;99.90;;;;;;5032963;28;20223;-51
2022/09/12 00:15:43;;;;;;;20.87;16.10;;;16.40;99.90;;;;;;5032032;28;20216;-52
2022/09/12 00:18:14;;;;;;;19.63;15.97;;;16.40;99.90;;;;;;5032701;28;20213;-51
2022/09/12 00:20:45;;;;;;;23.40;16.27;;;16.40;99.90;;;;;;5031088;28;20196;-60
2022/09/12 00:23:13;;;;;;;19.57;15.67;;;16.40;99.90;;;;;;5030907;28;20246;-53
2022/09/12 00:25:44;;;;;;;23.83;16.50;;;16.40;99.90;;;;;;5024761;28;20193;-53
2022/09/12 00:28:13;;;;;;;24.40;17.13;;;16.40;99.90;;;;;;5025281;28;20664;-53
2022/09/12 00:30:41;;;;;;;22.80;17.90;;;16.30;99.90;;;;;;5030653;28;20210;-52
2022/09/12 00:33:10;;;;;;;21.07;17.13;;;16.40;99.90;;;;;;5013291;28;20211;-53
2022/09/12 00:35:51;;;;;;;20.20;16.37;;;16.40;99.90;;;;;;5027802;28;20228;-53
2022/09/12 00:38:19;;;;;;;22.30;16.20;;;16.40;99.90;;;;;;5032239;28;20209;-53
2022/09/12 00:40:47;;;;;;;20.73;15.17;;;16.40;99.90;;;;;;5032260;28;20786;-52
2022/09/12 00:43:33;;;;;;;22.37;17.17;;;16.40;99.90;;;;;;5032388;28;20227;-53
2022/09/12 00:46:29;;;;;;;21.17;17.13;;;16.30;99.90;;;;;;5031966;28;20215;-53
2022/09/12 00:49:02;;;;;;;23.73;16.97;;;16.30;99.90;;;;;;5022037;28;20219;-53
2022/09/12 00:51:31;;;;;;;22.77;17.07;;;16.30;99.90;;;;;;5027844;28;20745;-52
2022/09/12 00:54:05;;;;;;;22.37;17.53;;;16.20;99.90;;;;;;5031206;28;20652;-53
2022/09/12 00:56:37;;;;;;;27.50;19.37;;;16.20;99.90;;;;;;5029039;28;20269;-53
2022/09/12 00:59:16;;;;;;;21.40;16.40;;;16.20;99.90;;;;;;5032781;28;20623;-52
2022/09/12 01:01:46;;;;;;;21.10;17.30;;;16.30;99.90;;;;;;5028159;28;20245;-53
2022/09/12 01:04:15;;;;;;;21.90;16.70;;;16.20;99.90;;;;;;5026204;28;20292;-53
2022/09/12 01:06:46;;;;;;;22.47;17.33;;;16.20;99.90;;;;;;5023539;28;20203;-53
2022/09/12 01:09:20;;;;;;;20.73;16.00;;;16.20;99.90;;;;;;5030498;28;20197;-53
2022/09/12 01:11:49;;;;;;;22.97;18.53;;;16.20;99.90;;;;;;5029484;28;20203;-54
2022/09/12 01:14:17;;;;;;;21.20;17.30;;;16.10;99.90;;;;;;5032041;28;20663;-53
2022/09/12 01:16:46;;;;;;;21.77;17.40;;;16.10;99.90;;;;;;5030919;28;20279;-53
2022/09/12 01:19:56;;;;;;;24.03;17.90;;;16.00;99.90;;;;;;5030979;28;20536;-53
2022/09/12 01:22:49;;;;;;;22.40;16.93;;;16.00;99.90;;;;;;5029404;28;20321;-53
2022/09/12 01:25:59;;;;;;;24.50;18.13;;;15.90;99.90;;;;;;5029083;28;20207;-54
2022/09/12 01:28:53;;;;;;;23.03;17.43;;;16.00;99.90;;;;;;5030786;28;20200;-53
2022/09/12 01:31:43;;;;;;;23.07;17.73;;;15.90;99.90;;;;;;5028686;28;20195;-52
2022/09/12 01:34:32;;;;;;;19.83;16.37;;;15.90;99.90;;;;;;5024544;28;20636;-53
2022/09/12 01:37:08;;;;;;;22.53;17.37;;;16.00;99.90;;;;;;5028234;28;20605;-52
2022/09/12 01:39:35;;;;;;;21.00;16.90;;;16.00;99.90;;;;;;5030772;28;20224;-52
2022/09/12 01:42:11;;;;;;;22.50;16.90;;;15.90;99.90;;;;;;5033794;28;20218;-52
2022/09/12 01:44:45;;;;;;;21.50;17.13;;;15.80;99.90;;;;;;5025168;28;20396;-52
2022/09/12 01:47:26;;;;;;;24.67;17.57;;;15.70;99.90;;;;;;5024315;28;20262;-52
2022/09/12 01:50:07;;;;;;;25.47;18.43;;;15.80;99.90;;;;;;5026364;28;20245;-52
2022/09/12 01:53:02;;;;;;;23.30;17.87;;;15.90;99.90;;;;;;5022202;28;20686;-52
2022/09/12 01:55:43;;;;;;;20.10;16.50;;;15.80;99.90;;;;;;5022249;28;20228;-51
2022/09/12 01:58:42;;;;;;;23.13;17.67;;;15.80;99.90;;;;;;5024429;28;20209;-51
2022/09/12 02:01:24;;;;;;;24.33;17.27;;;15.90;99.90;;;;;;5025032;28;20223;-51
2022/09/12 02:04:19;;;;;;;23.20;17.53;;;15.90;99.90;;;;;;5007424;28;20725;-52
2022/09/12 02:07:02;;;;;;;26.33;17.67;;;15.90;99.90;;;;;;5023287;28;20204;-52
2022/09/12 02:09:51;;;;;;;22.17;17.67;;;15.80;99.90;;;;;;5022416;28;20253;-52
2022/09/12 02:12:23;;;;;;;25.27;17.97;;;15.80;99.90;;;;;;5024068;28;20287;-53
2022/09/12 02:15:01;;;;;;;23.30;17.93;;;15.80;99.90;;;;;;5023616;28;20218;-51
2022/09/12 02:17:33;;;;;;;20.80;17.23;;;15.80;99.90;;;;;;5024680;28;21252;-53
2022/09/12 02:20:07;;;;;;;21.50;17.17;;;15.80;99.90;;;;;;5024364;28;20598;-54
2022/09/12 02:22:36;;;;;;;22.60;17.27;;;15.80;99.90;;;;;;5020720;28;20199;-52
2022/09/12 02:25:07;;;;;;;24.70;17.47;;;15.80;99.90;;;;;;5023579;28;20199;-52
2022/09/12 02:27:40;;;;;;;21.00;16.77;;;15.80;99.90;;;;;;5024263;28;20203;-52
2022/09/12 02:30:08;;;;;;;21.60;17.27;;;15.80;99.90;;;;;;5022932;28;20287;-52
2022/09/12 02:32:45;;;;;;;24.53;18.30;;;15.70;99.90;;;;;;5025781;28;20212;-52
2022/09/12 02:35:35;;;;;;;26.83;18.20;;;15.70;99.90;;;;;;5025260;28;20268;-53
2022/09/12 02:38:23;;;;;;;21.63;17.50;;;15.70;99.90;;;;;;5024328;28;20208;-51
2022/09/12 02:40:51;;;;;;;21.83;16.33;;;15.70;99.90;;;;;;5025672;28;20200;-51
2022/09/12 02:43:17;;;;;;;25.70;16.70;;;15.60;99.90;;;;;;5026759;28;20556;-52
2022/09/12 02:45:45;;;;;;;24.30;17.47;;;15.60;99.90;;;;;;5028913;28;20207;-53
2022/09/12 02:48:17;;;;;;;24.00;17.67;;;15.70;99.90;;;;;;5027806;28;20292;-52
2022/09/12 02:50:45;;;;;;;22.90;17.00;;;15.70;99.90;;;;;;5025252;28;20661;-52
2022/09/12 02:53:12;;;;;;;24.93;17.77;;;15.70;99.90;;;;;;5027343;28;20213;-51
2022/09/12 02:55:40;;;;;;;24.13;17.60;;;15.70;99.90;;;;;;5041872;28;20220;-51
2022/09/12 02:58:16;;;;;;;22.27;17.67;;;15.70;99.90;;;;;;5029486;28;20196;-51
2022/09/12 03:01:05;;;;;;;23.17;16.73;;;15.70;99.90;;;;;;5028100;28;20245;-52
2022/09/12 03:04:10;;;;;;;23.90;17.57;;;15.70;99.90;;;;;;5015432;28;20705;-52
2022/09/12 03:06:48;;;;;;;21.70;16.17;;;15.60;99.90;;;;;;5043448;28;20206;-51
2022/09/12 03:09:32;;;;;;;22.03;15.80;;;15.60;99.90;;;;;;5025674;28;20705;-52
2022/09/12 03:12:07;;;;;;;23.47;18.03;;;15.60;99.90;;;;;;5029000;28;20716;-51
2022/09/12 03:14:52;;;;;;;23.87;17.80;;;15.50;99.90;;;;;;5024694;28;20732;-51
2022/09/12 03:17:43;;;;;;;24.13;17.60;;;15.60;99.90;;;;;;5041502;28;20194;-51
2022/09/12 03:20:18;;;;;;;25.33;18.27;;;15.60;99.90;;;;;;5025424;28;20209;-52
2022/09/12 03:22:56;;;;;;;24.03;18.07;;;15.60;99.90;;;;;;5027299;28;20199;-52
2022/09/12 03:25:43;;;;;;;21.50;17.23;;;15.40;99.90;;;;;;5023264;28;20629;-52
2022/09/12 03:28:16;;;;;;;25.67;19.07;;;15.50;99.90;;;;;;5027968;28;20572;-51
2022/09/12 03:30:44;;;;;;;22.33;16.93;;;15.60;99.90;;;;;;5025307;28;20564;-50
2022/09/12 03:33:13;;;;;;;22.90;17.60;;;15.70;99.90;;;;;;5029327;28;20206;-51
2022/09/12 03:35:41;;;;;;;25.23;18.07;;;15.60;99.90;;;;;;5027244;28;20319;-51
2022/09/12 03:38:08;;;;;;;24.03;18.00;;;15.60;99.90;;;;;;5029126;28;20716;-51
2022/09/12 03:40:37;;;;;;;25.50;18.27;;;15.60;99.90;;;;;;5027895;28;20201;-52
2022/09/12 03:43:06;;;;;;;27.33;19.63;;;15.60;99.90;;;;;;5028972;28;20227;-52
2022/09/12 03:45:34;;;;;;;23.13;17.30;;;15.60;99.90;;;;;;5024222;28;20197;-53
2022/09/12 03:48:01;;;;;;;23.73;18.13;;;15.60;99.90;;;;;;5028835;28;20203;-52
2022/09/12 03:50:28;;;;;;;23.30;18.13;;;15.60;99.90;;;;;;5025769;28;20209;-51
2022/09/12 03:52:58;;;;;;;25.83;19.13;;;15.60;99.90;;;;;;5023483;28;20570;-52
2022/09/12 03:55:25;;;;;;;21.87;17.00;;;15.60;99.90;;;;;;5028696;28;20264;-52
2022/09/12 03:57:53;;;;;;;24.77;18.83;;;15.60;99.90;;;;;;5027488;28;20201;-51
2022/09/12 04:00:20;;;;;;;23.87;18.20;;;15.60;99.90;;;;;;5031150;28;21154;-52
2022/09/12 04:02:47;;;;;;;23.47;18.13;;;15.60;99.90;;;;;;5029684;28;20777;-51
2022/09/12 04:05:14;;;;;;;24.57;18.03;;;15.50;99.90;;;;;;5029400;28;20203;-52
2022/09/12 04:07:41;;;;;;;26.10;17.73;;;15.50;99.90;;;;;;5030417;28;20207;-53
2022/09/12 04:10:08;;;;;;;23.50;17.60;;;15.60;99.90;;;;;;5031312;28;20226;-52
2022/09/12 04:12:35;;;;;;;25.17;17.97;;;15.50;99.90;;;;;;5031929;28;20303;-52
2022/09/12 04:15:02;;;;;;;24.37;17.87;;;15.60;99.90;;;;;;5031068;28;20197;-52
2022/09/12 04:17:29;;;;;;;24.87;18.63;;;15.50;99.90;;;;;;5032971;28;20655;-53
2022/09/12 04:19:56;;;;;;;24.13;18.17;;;15.50;99.90;;;;;;5030685;28;20259;-52
2022/09/12 04:22:23;;;;;;;23.83;17.67;;;15.50;99.90;;;;;;5032114;28;20243;-52
2022/09/12 04:24:50;;;;;;;25.67;18.70;;;15.40;99.90;;;;;;5031995;28;20199;-51
2022/09/12 04:27:17;;;;;;;23.10;17.53;;;15.50;99.90;;;;;;5030251;28;20287;-54
2022/09/12 04:29:44;;;;;;;25.37;18.77;;;15.40;99.90;;;;;;5029541;28;20207;-51
2022/09/12 04:32:11;;;;;;;24.70;17.67;;;15.40;99.90;;;;;;5032045;28;20677;-52
2022/09/12 04:34:38;;;;;;;23.03;17.33;;;15.40;99.90;;;;;;5027880;28;20720;-52
2022/09/12 04:37:04;;;;;;;27.70;18.70;;;15.40;99.90;;;;;;5032431;28;20719;-51
2022/09/12 04:39:31;;;;;;;24.70;17.53;;;15.40;99.90;;;;;;5026889;28;20203;-51
2022/09/12 04:41:58;;;;;;;23.30;17.67;;;15.40;99.90;;;;;;5027465;28;20204;-51
2022/09/12 04:44:25;;;;;;;24.30;18.90;;;15.40;99.90;;;;;;5031268;28;20195;-52
2022/09/12 04:46:52;;;;;;;22.47;17.70;;;15.40;99.90;;;;;;5031712;28;20289;-52
2022/09/12 04:49:18;;;;;;;24.70;18.73;;;15.30;99.90;;;;;;5030598;28;20737;-52
2022/09/12 04:51:46;;;;;;;29.10;19.23;;;15.30;99.90;;;;;;5029859;28;20200;-51
2022/09/12 04:54:18;;;;;;;25.67;17.97;;;15.30;99.90;;;;;;5029526;28;20554;-51
2022/09/12 04:56:47;;;;;;;25.67;18.20;;;15.30;99.90;;;;;;5028672;28;20211;-52
2022/09/12 04:59:16;;;;;;;22.87;17.77;;;15.30;99.90;;;;;;5033351;28;20595;-51
2022/09/12 05:01:43;;;;;;;24.90;18.83;;;15.30;99.90;;;;;;5025319;28;20251;-52
2022/09/12 05:04:11;;;;;;;28.57;19.53;;;15.30;99.90;;;;;;5032731;28;20578;-51
2022/09/12 05:06:40;;;;;;;27.83;19.07;;;15.30;99.90;;;;;;5018766;28;20708;-52
2022/09/12 05:09:10;;;;;;;25.73;18.90;;;15.30;99.90;;;;;;5032332;28;20540;-51
2022/09/12 05:11:39;;;;;;;22.80;18.17;;;15.30;99.90;;;;;;5030563;28;20301;-52
2022/09/12 05:14:25;;;;;;;26.73;18.70;;;15.30;99.90;;;;;;5026232;28;20214;-52
2022/09/12 05:16:52;;;;;;;23.67;17.43;;;15.30;99.90;;;;;;5029202;28;20229;-52
2022/09/12 05:19:19;;;;;;;24.97;17.37;;;15.40;99.90;;;;;;5030152;28;20211;-51
2022/09/12 05:21:46;;;;;;;25.97;18.33;;;15.40;99.90;;;;;;5030563;28;20226;-52
2022/09/12 05:24:13;;;;;;;27.00;18.70;;;15.40;99.90;;;;;;5031309;28;20207;-52
2022/09/12 05:26:40;;;;;;;25.10;18.27;;;15.40;99.90;;;;;;5032195;28;20215;-52
2022/09/12 05:29:06;;;;;;;28.87;19.37;;;15.40;99.90;;;;;;5032730;28;20209;-53
2022/09/12 05:31:34;;;;;;;24.77;18.10;;;15.40;99.90;;;;;;5034988;28;20214;-51
2022/09/12 05:34:08;;;;;;;27.20;19.23;;;15.40;99.90;;;;;;5021051;28;20199;-52
2022/09/12 05:36:36;;;;;;;23.57;18.47;;;15.30;99.90;;;;;;4661278;28;10000247;-52
2022/09/12 05:39:03;;;;;;;25.20;18.57;;;15.30;99.90;;;;;;5029131;28;20593;-53
2022/09/12 05:41:32;;;;;;;24.17;18.50;;;15.40;99.90;;;;;;5020548;28;20620;-52
2022/09/12 05:44:01;;;;;;;24.23;17.30;;;15.40;99.90;;;;;;5015353;28;20200;-53
2022/09/12 05:46:50;;;;;;;24.77;18.50;;;15.30;99.90;;;;;;5019023;28;20298;-52
2022/09/12 05:49:17;;;;;;;24.67;18.17;;;15.30;99.90;;;;;;5019918;28;20206;-53
2022/09/12 05:51:44;;;;;;;25.83;19.43;;;15.30;99.90;;;;;;5024978;28;20198;-53
2022/09/12 05:54:14;;;;;;;24.10;17.93;;;15.40;99.90;;;;;;5020523;28;20566;-52
2022/09/12 05:56:42;;;;;;;24.83;18.13;;;15.30;99.90;;;;;;5021836;28;20667;-52
2022/09/12 05:59:15;;;;;;;24.77;18.30;;;15.40;99.90;;;;;;5041033;28;20207;-52
2022/09/12 06:01:43;;;;;;;25.33;18.97;;;15.40;99.90;;;;;;5019645;28;20246;-52
2022/09/12 06:04:11;;;;;;;23.90;17.60;;;15.40;99.90;;;;;;5024854;28;20194;-52
2022/09/12 06:06:45;;;;;;;25.50;18.27;;;15.40;99.90;;;;;;5021581;28;20195;-53
2022/09/12 06:09:14;;;;;;;25.77;18.50;;;15.30;99.90;;;;;;5023820;28;20197;-53
2022/09/12 06:11:42;;;;;;;22.37;17.10;;;15.40;99.90;;;;;;5025208;28;20596;-53
2022/09/12 06:14:11;;;;;;;24.70;18.33;;;15.40;99.90;;;;;;5020692;28;20224;-53
2022/09/12 06:16:39;;;;;;;23.13;17.87;;;15.40;99.90;;;;;;5017301;28;20618;-53
2022/09/12 06:19:12;;;;;;;25.57;18.50;;;15.40;99.90;;;;;;5017771;28;20231;-52
2022/09/12 06:21:39;;;;;;;26.10;19.20;;;15.30;99.90;;;;;;5023250;28;20200;-51
2022/09/12 06:24:06;;;;;;;24.57;17.70;;;15.40;99.90;;;;;;5024622;28;20197;-52
2022/09/12 06:26:34;;;;;;;25.70;18.30;;;15.30;99.90;;;;;;5017248;28;20697;-51
2022/09/12 06:29:01;;;;;;;23.70;18.93;;;15.30;99.90;;;;;;5022584;28;20244;-52
2022/09/12 06:31:36;;;;;;;24.80;19.33;;;15.30;99.90;;;;;;5023339;28;20238;-53
2022/09/12 06:34:05;;;;;;;23.97;18.83;;;15.30;99.90;;;;;;5021745;28;20233;-51
2022/09/12 06:36:35;;;;;;;24.93;19.13;;;15.30;99.90;;;;;;5019128;28;20242;-60
2022/09/12 06:39:09;;;;;;;26.13;18.20;;;15.40;99.90;;;;;;5023072;28;20207;-52
2022/09/12 06:41:37;;;;;;;22.53;17.53;;;15.40;99.90;;;;;;5024187;28;20286;-52
2022/09/12 06:44:18;;;;;;;23.73;17.43;;;15.40;99.90;;;;;;5027193;28;20530;-60
2022/09/12 06:46:46;;;;;;;24.73;18.40;;;15.40;99.90;;;;;;5020661;28;20231;-52
2022/09/12 06:49:13;;;;;;;26.83;18.70;;;15.50;99.90;;;;;;5019753;28;20194;-53
2022/09/12 06:51:43;;;;;;;31.23;20.23;;;15.50;99.90;;;;;;5017994;28;20298;-53
2022/09/12 06:54:15;;;;;;;25.47;18.03;;;15.70;99.90;;;;;;5022060;28;20280;-52
2022/09/12 06:56:43;;;;;;;27.10;19.57;;;15.80;99.90;;;;;;5023220;28;20633;-53
2022/09/12 06:59:10;;;;;;;21.93;16.37;;;15.90;99.90;;;;;;5024962;28;21024;-52
2022/09/12 07:01:38;;;;;;;25.10;16.13;;;16.10;99.90;;;;;;5023122;28;20297;-52
2022/09/12 07:04:06;;;;;;;21.97;16.20;;;16.10;99.90;;;;;;5026643;28;20704;-52
2022/09/12 07:06:43;;;;;;;19.57;16.43;;;16.10;99.90;;;;;;5020495;28;20207;-53
2022/09/12 07:09:14;;;;;;;23.23;16.87;;;16.20;99.90;;;;;;5024753;28;20206;-52
2022/09/12 07:11:42;;;;;;;23.40;17.80;;;16.20;99.90;;;;;;5028344;28;20566;-52
2022/09/12 07:14:12;;;;;;;23.43;17.30;;;16.20;99.90;;;;;;5022181;28;20291;-50
2022/09/12 07:16:40;;;;;;;20.17;15.60;;;16.40;99.90;;;;;;5021375;28;20553;-51
2022/09/12 07:19:08;;;;;;;20.87;16.40;;;16.40;99.90;;;;;;5024876;28;20495;-53
2022/09/12 07:21:38;;;;;;;20.67;16.50;;;16.40;99.90;;;;;;5018943;28;20300;-52
2022/09/12 07:24:08;;;;;;;19.93;15.30;;;16.50;99.90;;;;;;5019230;28;20195;-52
2022/09/12 07:26:35;;;;;;;22.30;15.90;;;16.60;99.90;;;;;;5024227;28;20244;-53
2022/09/12 07:29:02;;;;;;;22.40;16.57;;;16.50;99.90;;;;;;5012063;28;20209;-52
2022/09/12 07:31:48;;;;;;;22.53;17.23;;;16.60;99.90;;;;;;5027551;28;20199;-53
2022/09/12 07:34:16;;;;;;;21.27;16.20;;;16.40;99.90;;;;;;5027584;28;20205;-53
2022/09/12 07:36:43;;;;;;;23.47;16.50;;;16.50;99.90;;;;;;5022269;28;20689;-51
2022/09/12 07:39:10;;;;;;;21.53;16.53;;;16.50;99.90;;;;;;5033411;28;20554;-51
2022/09/12 07:41:36;;;;;;;20.43;15.77;;;16.60;99.90;;;;;;5024988;28;20207;-51
2022/09/12 07:44:05;;;;;;;21.83;16.83;;;16.80;99.90;;;;;;5023521;28;20367;-52
2022/09/12 07:46:33;;;;;;;20.67;14.93;;;16.90;99.90;;;;;;5025556;28;20205;-53
2022/09/12 07:49:01;;;;;;;22.10;16.63;;;17.00;99.90;;;;;;5024300;28;20200;-52
2022/09/12 07:51:30;;;;;;;18.57;15.00;;;17.10;99.90;;;;;;5025054;28;20828;-52
2022/09/12 07:53:57;;;;;;;19.30;15.83;;;17.20;99.90;;;;;;5026217;28;20203;-52
2022/09/12 07:56:26;;;;;;;19.63;15.63;;;17.30;99.90;;;;;;5024612;28;20651;-52
2022/09/12 07:58:57;;;;;;;20.43;16.50;;;17.50;99.90;;;;;;5022884;28;20287;-52
2022/09/12 08:01:25;;;;;;;18.53;15.13;;;17.50;99.90;;;;;;5019829;28;20691;-52
2022/09/12 08:03:57;;;;;;;18.33;14.07;;;17.50;99.90;;;;;;5025196;28;20196;-53
2022/09/12 08:06:25;;;;;;;20.87;14.23;;;17.60;99.90;;;;;;5025074;28;20231;-52
2022/09/12 08:08:55;;;;;;;16.13;13.20;;;17.90;99.90;;;;;;5023981;28;20203;-52
2022/09/12 08:11:23;;;;;;;16.90;12.93;;;18.00;99.90;;;;;;5022320;28;20867;-52
2022/09/12 08:13:51;;;;;;;18.40;13.50;;;18.30;99.90;;;;;;5022263;28;20257;-52
2022/09/12 08:16:24;;;;;;;17.30;12.73;;;18.40;99.90;;;;;;5026392;28;20211;-51
2022/09/12 08:18:50;;;;;;;15.13;12.93;;;18.40;99.90;;;;;;5025193;28;20635;-52
2022/09/12 08:21:23;;;;;;;15.40;12.37;;;18.50;99.90;;;;;;5030947;28;20253;-52
2022/09/12 08:23:59;;;;;;;15.73;11.57;;;18.40;99.90;;;;;;5025921;28;20208;-52
2022/09/12 08:26:27;;;;;;;13.93;11.53;;;18.40;99.90;;;;;;5023583;28;20674;-52
2022/09/12 08:28:54;;;;;;;14.20;11.80;;;18.50;99.90;;;;;;5024658;28;20200;-53
2022/09/12 08:31:26;;;;;;;13.77;11.63;;;18.70;99.90;;;;;;5029907;28;20698;-53
2022/09/12 08:33:56;;;;;;;15.20;11.47;;;19.00;99.90;;;;;;5028529;28;20204;-51
2022/09/12 08:36:28;;;;;;;14.43;12.03;;;19.20;99.90;;;;;;5029801;28;20247;-54
2022/09/12 08:38:58;;;;;;;15.43;11.23;;;19.60;99.90;;;;;;5024046;28;20200;-52
2022/09/12 08:41:41;;;;;;;17.17;11.43;;;19.90;99.90;;;;;;5023446;28;20207;-53
2022/09/12 08:44:16;;;;;;;13.07;11.40;;;20.10;99.90;;;;;;5023738;28;20201;-53
2022/09/12 08:47:11;;;;;;;17.00;11.53;;;20.30;99.90;;;;;;5026475;28;20546;-53
2022/09/12 08:49:53;;;;;;;14.03;11.83;;;20.60;99.90;;;;;;5026565;28;20250;-54
2022/09/12 08:52:25;;;;;;;12.63;10.80;;;20.20;99.90;;;;;;5023849;28;20201;-53
2022/09/12 08:54:54;;;;;;;15.17;12.07;;;20.60;99.90;;;;;;5024284;28;20204;-53
2022/09/12 08:57:25;;;;;;;12.87;11.07;;;20.70;99.90;;;;;;5026057;28;20837;-54
2022/09/12 08:59:53;;;;;;;12.67;11.00;;;20.40;99.90;;;;;;5025258;28;20667;-52
2022/09/12 09:02:40;;;;;;;13.20;10.93;;;20.80;99.90;;;;;;5022121;28;20706;-55
2022/09/12 09:05:39;;;;;;;11.30;9.40;;;21.40;99.90;;;;;;5027146;28;20243;-54
2022/09/12 09:08:12;;;;;;;11.23;9.63;;;21.50;99.90;;;;;;5021739;28;20223;-52
2022/09/12 09:10:50;;;;;;;13.27;9.57;;;21.10;99.90;;;;;;5026662;28;20200;-54
2022/09/12 09:16:24;;;;;;;12.57;10.07;;;21.30;99.90;;;;;;5022720;28;20236;-54
2022/09/12 09:18:56;;;;;;;14.23;10.33;;;21.00;99.90;;;;;;5023846;28;20196;-53
2022/09/12 09:21:29;;;;;;;11.80;10.60;;;21.10;99.90;;;;;;5024170;28;20219;-53
2022/09/12 09:24:04;;;;;;;13.57;10.37;;;21.00;99.90;;;;;;5026094;28;20201;-52
2022/09/12 09:27:10;;;;;;;12.13;9.53;;;21.10;99.90;;;;;;5023770;28;20207;-53
2022/09/12 09:29:57;;;;;;;11.30;9.67;;;21.50;99.90;;;;;;5017650;28;20209;-53
2022/09/12 09:32:32;;;;;;;11.73;9.70;;;21.80;99.90;;;;;;5022444;28;20232;-53
2022/09/12 09:35:01;;;;;;;11.23;8.50;;;21.60;99.90;;;;;;5018864;28;20219;-53
2022/09/12 09:37:41;;;;;;;11.27;8.77;;;21.50;99.90;;;;;;5021679;28;20675;-53
2022/09/12 09:40:14;;;;;;;10.70;8.47;;;21.70;99.90;;;;;;5021428;28;20208;-52
2022/09/12 09:42:59;;;;;;;9.63;8.30;;;22.20;99.90;;;;;;5028702;28;20204;-52
2022/09/12 09:45:28;;;;;;;9.17;7.40;;;22.20;99.90;;;;;;5023315;28;20288;-57
2022/09/12 09:48:18;;;;;;;7.93;7.13;;;22.10;99.90;;;;;;5022349;28;20792;-53
2022/09/12 09:50:47;;;;;;;9.07;7.30;;;21.90;99.90;;;;;;5020177;28;20683;-53
2022/09/12 09:53:35;;;;;;;8.80;7.23;;;22.10;99.90;;;;;;5025000;28;20208;-54
2022/09/12 09:56:25;;;;;;;11.10;7.70;;;21.80;99.90;;;;;;5022172;28;20201;-54
2022/09/12 09:58:52;;;;;;;8.00;6.40;;;21.70;99.90;;;;;;5029948;28;20201;-53
2022/09/12 10:01:19;;;;;;;8.27;6.63;;;21.60;99.90;;;;;;5028008;28;20229;-53
2022/09/12 10:03:52;;;;;;;8.57;6.20;;;21.50;99.90;;;;;;5031149;28;20726;-53
2022/09/12 10:06:22;;;;;;;8.30;6.83;;;21.70;99.90;;;;;;5028263;28;20286;-54
2022/09/12 10:08:49;;;;;;;11.10;7.53;;;21.40;99.90;;;;;;5031986;28;20232;-53
2022/09/12 10:11:22;;;;;;;10.23;7.77;;;21.70;99.90;;;;;;5031155;28;20235;-54
2022/09/12 10:13:57;;;;;;;7.70;6.17;;;21.80;99.90;;;;;;5031365;28;20203;-53
2022/09/12 10:16:32;;;;;;;8.20;5.73;;;21.90;99.90;;;;;;5030098;28;20200;-53
2022/09/12 10:19:01;;;;;;;8.40;5.70;;;21.90;99.90;;;;;;5030895;28;20220;-52
2022/09/12 10:21:40;;;;;;;6.83;5.10;;;22.10;99.90;;;;;;5029323;28;20686;-52
2022/09/12 10:24:25;;;;;;;7.23;5.30;;;22.10;99.90;;;;;;5031407;28;20196;-52
2022/09/12 10:27:05;;;;;;;6.67;5.67;;;22.20;99.90;;;;;;5024853;28;20663;-53
2022/09/12 10:29:38;;;;;;;6.30;5.43;;;22.20;99.90;;;;;;5020005;28;20575;-52
2022/09/12 10:32:07;;;;;;;6.73;5.37;;;22.20;99.90;;;;;;5020564;28;20209;-53
2022/09/12 10:34:41;;;;;;;7.00;6.30;;;22.30;99.90;;;;;;5022825;28;20215;-53
2022/09/12 10:37:14;;;;;;;7.47;6.53;;;22.30;99.90;;;;;;5020593;28;20216;-52
2022/09/12 10:39:52;;;;;;;8.93;6.07;;;22.20;99.90;;;;;;5015189;28;20216;-53
2022/09/12 10:42:44;;;;;;;8.20;6.40;;;22.20;99.90;;;;;;5020360;28;20219;-52
2022/09/12 10:45:34;;;;;;;6.60;5.90;;;22.20;99.90;;;;;;5021963;28;20287;-53
2022/09/12 10:48:21;;;;;;;7.33;6.53;;;22.30;99.90;;;;;;5018201;28;20198;-52
2022/09/12 10:50:48;;;;;;;10.17;5.80;;;22.40;99.90;;;;;;5027287;28;20203;-53
2022/09/12 10:53:27;;;;;;;7.93;6.40;;;22.40;99.90;;;;;;5023410;28;20299;-53
2022/09/12 10:56:13;;;;;;;7.60;5.80;;;22.50;99.90;;;;;;5020854;28;20215;-53
2022/09/12 10:59:14;;;;;;;7.43;5.97;;;22.60;99.90;;;;;;5026968;28;20736;-53
2022/09/12 11:01:49;;;;;;;7.27;5.57;;;22.70;99.90;;;;;;5031513;28;20276;-52
2022/09/12 11:04:48;;;;;;;6.67;5.53;;;22.70;99.90;;;;;;5033998;28;20204;-52
2022/09/12 11:07:36;;;;;;;10.67;6.57;;;22.80;99.90;;;;;;5008009;28;20285;-52
2022/09/12 11:10:25;;;;;;;7.37;5.97;;;22.90;99.90;;;;;;5030223;28;20599;-52
2022/09/12 11:13:05;;;;;;;4.93;4.50;;;22.90;99.90;;;;;;5030654;28;20959;-55
2022/09/12 11:16:10;;;;;;;5.27;4.30;;;23.10;99.90;;;;;;5033287;28;20201;-53
2022/09/12 11:18:37;;;;;;;4.30;3.90;;;23.30;99.90;;;;;;5025687;28;20443;-54
2022/09/12 11:21:12;;;;;;;4.93;3.90;;;23.40;99.90;;;;;;5030314;28;20206;-53
2022/09/12 11:23:59;;;;;;;5.33;3.37;;;23.50;99.90;;;;;;5034744;28;20673;-54
2022/09/12 11:26:52;;;;;;;4.17;3.63;;;23.80;99.90;;;;;;5029401;28;20651;-53
2022/09/12 11:29:30;;;;;;;7.03;3.83;;;24.10;99.90;;;;;;5033631;28;20578;-52
2022/09/12 11:32:02;;;;;;;4.57;3.40;;;23.80;99.90;;;;;;5031238;28;20205;-53
2022/09/12 11:34:46;;;;;;;5.23;3.90;;;24.60;99.90;;;;;;5029997;28;20581;-56
2022/09/12 11:37:54;;;;;;;4.97;2.97;;;25.10;99.90;;;;;;5029814;28;20749;-54
2022/09/12 11:40:36;;;;;;;3.57;2.70;;;25.50;99.90;;;;;;5032018;28;20247;-53
2022/09/12 11:43:48;;;;;;;4.63;2.80;;;25.30;99.90;;;;;;5033313;28;20200;-53
2022/09/12 11:46:37;;;;;;;4.57;2.90;;;25.80;99.90;;;;;;5015412;28;20198;-53
2022/09/12 11:49:13;;;;;;;4.20;2.87;;;26.50;99.90;;;;;;5029185;28;20203;-53
2022/09/12 11:51:39;;;;;;;3.63;3.30;;;26.70;99.90;;;;;;5024752;28;20188;-54
2022/09/12 11:54:18;;;;;;;21.47;7.13;;;25.90;99.90;;;;;;5029705;28;20204;-54
2022/09/12 11:56:48;;;;;;;8.30;3.23;;;25.50;99.90;;;;;;5028257;28;20270;-54
2022/09/12 11:59:53;;;;;;;5.07;3.13;;;26.20;99.90;;;;;;5027705;28;20196;-54
2022/09/12 12:02:35;;;;;;;6.40;3.17;;;26.30;99.90;;;;;;5025449;28;20269;-54
2022/09/12 12:05:20;;;;;;;4.80;2.80;;;26.30;99.90;;;;;;5022501;28;20644;-53
2022/09/12 12:07:56;;;;;;;4.93;3.00;;;25.80;99.90;;;;;;5025425;28;20207;-54
2022/09/12 12:10:32;;;;;;;3.73;3.13;;;26.20;99.90;;;;;;5029334;28;21399;-53
2022/09/12 12:13:04;;;;;;;3.60;2.63;;;26.90;99.90;;;;;;5032793;28;20637;-54
2022/09/12 12:15:33;;;;;;;6.40;2.57;;;28.20;99.90;;;;;;5028073;28;20216;-53
2022/09/12 12:18:06;;;;;;;3.30;2.30;;;28.50;99.90;;;;;;5028475;28;20259;-53
2022/09/12 12:20:34;;;;;;;4.07;2.33;;;28.60;99.90;;;;;;5028622;28;20208;-54
2022/09/12 12:23:01;;;;;;;3.13;2.43;;;28.90;99.90;;;;;;5027838;28;20196;-53
2022/09/12 12:25:52;;;;;;;5.28;2.67;;;28.00;99.90;;;;;;5030807;28;20568;-54
2022/09/12 12:28:40;;;;;;;2.83;2.22;;;28.00;99.90;;;;;;5023718;28;20204;-53
2022/09/12 12:31:09;;;;;;;3.90;2.75;;;29.10;99.90;;;;;;5020767;28;20246;-54
2022/09/12 12:33:36;;;;;;;2.58;2.33;;;28.30;99.90;;;;;;5029601;28;20208;-53
2022/09/12 12:36:06;;;;;;;3.83;3.10;;;27.90;99.90;;;;;;5027464;28;20635;-54
2022/09/12 12:38:38;;;;;;;4.33;2.30;;;27.30;99.90;;;;;;5029799;28;20213;-54
2022/09/12 12:41:17;;;;;;;2.77;2.30;;;27.60;99.90;;;;;;5030610;28;20275;-54
2022/09/12 12:43:49;;;;;;;2.50;1.77;;;27.40;99.90;;;;;;5026387;28;20617;-53
2022/09/12 12:46:28;;;;;;;3.97;1.80;;;26.80;99.90;;;;;;5029537;28;20272;-53
2022/09/12 12:49:17;;;;;;;2.35;1.88;;;26.60;99.90;;;;;;5022755;28;20200;-53
2022/09/12 12:51:55;;;;;;;3.50;1.77;;;27.50;99.90;;;;;;5027097;28;20207;-53
2022/09/12 12:54:45;;;;;;;2.85;2.30;;;28.00;99.90;;;;;;5027789;28;20192;-53
2022/09/12 12:57:12;;;;;;;3.80;2.25;;;28.10;99.90;;;;;;5023139;28;20209;-54
2022/09/12 13:00:20;;;;;;;3.28;2.58;;;28.00;99.90;;;;;;5025441;28;20204;-56
2022/09/12 13:03:05;;;;;;;3.00;1.90;;;28.20;99.90;;;;;;5014488;28;20240;-56
2022/09/12 13:05:46;;;;;;;2.75;2.30;;;27.90;99.90;;;;;;5021857;28;20747;-55
2022/09/12 13:08:15;;;;;;;4.10;2.60;;;27.80;99.90;;;;;;5027175;28;20203;-54
2022/09/12 13:10:59;;;;;;;2.50;2.17;;;28.20;99.90;;;;;;5027917;28;20247;-54
2022/09/12 13:13:44;;;;;;;4.35;2.40;;;28.50;99.90;;;;;;5027813;28;20201;-54